createdAt,value
2023-01-22T00:01:12.613Z,11.90
2023-01-22T00:03:46.521Z,10.50
2023-01-22T00:06:14.457Z,11.17
2023-01-22T00:11:11.868Z,11.63
2023-01-22T00:13:38.805Z,12.18
2023-01-22T00:16:07.331Z,10.60
2023-01-22T00:18:35.060Z,12.50
2023-01-22T00:21:02.203Z,11.20
2023-01-22T00:23:29.058Z,10.50
2023-01-22T00:26:12.223Z,11.03
2023-01-22T00:31:10.329Z,10.23
2023-01-22T00:33:38.828Z,10.50
2023-01-22T00:36:12.620Z,10.37
2023-01-22T00:38:39.874Z,10.02
2023-01-22T00:41:08.026Z,10.47
2023-01-22T00:43:36.431Z,9.73
2023-01-22T00:46:03.302Z,10.15
2023-01-22T00:48:29.991Z,10.07
2023-01-22T00:50:56.992Z,10.20
2023-01-22T00:53:24.365Z,8.80
2023-01-22T00:55:56.772Z,8.60
2023-01-22T00:58:24.036Z,8.18
2023-01-22T01:00:51.513Z,9.63
2023-01-22T01:03:27.807Z,9.90
2023-01-22T01:05:56.302Z,9.23
2023-01-22T01:08:24.222Z,8.02
2023-01-22T01:10:55.891Z,9.75
2023-01-22T01:13:23.513Z,8.73
2023-01-22T01:15:50.548Z,9.45
2023-01-22T01:18:17.740Z,9.57
2023-01-22T01:20:44.391Z,9.57
2023-01-22T01:23:11.089Z,7.88
2023-01-22T01:25:40.520Z,9.67
2023-01-22T01:28:07.169Z,7.22
2023-01-22T01:30:34.152Z,8.27
2023-01-22T01:33:00.868Z,8.20
2023-01-22T01:35:27.605Z,8.33
2023-01-22T01:37:54.342Z,8.75
2023-01-22T01:40:21.003Z,7.13
2023-01-22T01:42:47.965Z,8.53
2023-01-22T01:45:30.868Z,8.63
2023-01-22T01:48:14.813Z,7.60
2023-01-22T01:50:43.302Z,7.65
2023-01-22T01:53:10.009Z,8.32
2023-01-22T01:55:39.863Z,7.40
2023-01-22T01:58:18.570Z,8.18
2023-01-22T02:00:47.242Z,8.10
2023-01-22T02:03:14.285Z,8.45
2023-01-22T02:08:08.619Z,8.05
2023-01-22T02:10:37.675Z,9.07
2023-01-22T02:13:10.494Z,8.25
2023-01-22T02:15:39.396Z,7.78
2023-01-22T02:18:06.265Z,8.15
2023-01-22T02:23:07.861Z,7.90
2023-01-22T02:25:34.933Z,8.60
2023-01-22T02:28:01.680Z,9.00
2023-01-22T02:30:28.606Z,7.53
2023-01-22T02:32:55.304Z,8.40
2023-01-22T02:35:22.044Z,8.00
2023-01-22T02:37:49.311Z,7.82
2023-01-22T02:40:16.793Z,8.20
2023-01-22T02:42:46.003Z,8.02
2023-01-22T02:45:12.821Z,9.13
2023-01-22T02:47:39.489Z,9.07
2023-01-22T02:50:06.663Z,8.87
2023-01-22T02:52:33.433Z,9.20
2023-01-22T02:55:00.133Z,8.82
2023-01-22T02:57:29.408Z,8.73
2023-01-22T02:59:56.053Z,8.15
2023-01-22T03:02:25.010Z,7.68
2023-01-22T03:04:52.125Z,6.97
2023-01-22T03:07:19.302Z,7.30
2023-01-22T03:09:46.083Z,8.47
2023-01-22T03:12:12.990Z,7.45
2023-01-22T03:14:43.159Z,7.33
2023-01-22T03:17:28.647Z,7.23
2023-01-22T03:20:13.842Z,7.60
2023-01-22T03:22:40.501Z,7.20
2023-01-22T03:25:07.576Z,6.77
2023-01-22T03:27:34.331Z,6.80
2023-01-22T03:30:02.092Z,6.15
2023-01-22T03:32:28.775Z,7.18
2023-01-22T03:34:56.251Z,6.87
2023-01-22T03:37:23.095Z,7.88
2023-01-22T03:39:52.724Z,6.57
2023-01-22T03:42:19.353Z,6.63
2023-01-22T03:44:46.100Z,7.57
2023-01-22T03:47:12.908Z,6.65
2023-01-22T03:49:39.555Z,6.20
2023-01-22T03:52:06.356Z,6.53
2023-01-22T03:54:33.072Z,6.10
2023-01-22T03:56:59.708Z,5.60
2023-01-22T03:59:26.925Z,5.97
2023-01-22T04:01:54.236Z,5.95
2023-01-22T04:04:21.463Z,7.05
2023-01-22T04:06:48.183Z,6.60
2023-01-22T04:09:37.951Z,5.05
2023-01-22T04:12:04.889Z,6.32
2023-01-22T04:14:31.577Z,5.55
2023-01-22T04:16:58.380Z,5.18
2023-01-22T04:19:25.204Z,5.83
2023-01-22T04:21:51.844Z,5.63
2023-01-22T04:24:18.582Z,5.63
2023-01-22T04:26:45.438Z,5.18
2023-01-22T04:29:15.148Z,4.40
2023-01-22T04:34:10.762Z,4.00
2023-01-22T04:36:37.479Z,4.85
2023-01-22T04:39:04.543Z,3.20
2023-01-22T04:41:34.355Z,3.38
2023-01-22T04:44:01.150Z,3.50
2023-01-22T04:46:27.933Z,3.47
2023-01-22T04:48:54.885Z,3.53
2023-01-22T04:51:21.584Z,2.53
2023-01-22T04:53:48.367Z,2.50
2023-01-22T04:56:15.031Z,2.97
2023-01-22T05:01:08.222Z,2.35
2023-01-22T05:03:34.904Z,2.40
2023-01-22T05:06:05.197Z,2.75
2023-01-22T05:08:31.840Z,2.10
2023-01-22T05:11:02.865Z,1.80
2023-01-22T05:13:29.957Z,2.42
2023-01-22T05:15:57.409Z,2.15
2023-01-22T05:18:24.050Z,2.50
2023-01-22T05:20:50.734Z,1.85
2023-01-22T05:23:17.587Z,1.80
2023-01-22T05:25:49.945Z,1.50
2023-01-22T05:28:16.619Z,2.00
2023-01-22T05:30:43.407Z,2.08
2023-01-22T05:33:11.540Z,2.05
2023-01-22T05:35:38.348Z,1.90
2023-01-22T05:38:05.036Z,1.60
2023-01-22T05:40:31.796Z,2.10
2023-01-22T05:43:03.566Z,2.13
2023-01-22T05:45:30.381Z,1.77
2023-01-22T05:47:57.140Z,1.65
2023-01-22T05:50:24.821Z,1.90
2023-01-22T05:52:55.848Z,1.60
2023-01-22T05:55:22.893Z,1.65
2023-01-22T05:57:50.481Z,2.13
2023-01-22T06:00:17.765Z,1.40
2023-01-22T06:02:44.685Z,1.90
2023-01-22T06:05:11.491Z,1.90
2023-01-22T06:07:38.355Z,1.60
2023-01-22T06:10:05.469Z,1.65
2023-01-22T06:12:32.117Z,1.98
2023-01-22T06:14:58.800Z,1.90
2023-01-22T06:17:25.498Z,1.98
2023-01-22T06:19:52.651Z,2.20
2023-01-22T06:22:19.451Z,2.05
2023-01-22T06:24:46.425Z,2.50
2023-01-22T06:27:16.352Z,2.08
2023-01-22T06:29:43.096Z,2.40
2023-01-22T06:32:10.343Z,2.15
2023-01-22T06:34:38.418Z,2.28
2023-01-22T06:37:05.692Z,2.70
2023-01-22T06:39:32.693Z,2.30
2023-01-22T06:41:59.961Z,2.25
2023-01-22T06:44:26.699Z,2.70
2023-01-22T06:46:53.468Z,3.30
2023-01-22T06:49:20.205Z,3.40
2023-01-22T06:51:46.853Z,3.17
2023-01-22T06:54:13.781Z,2.95
2023-01-22T06:59:07.718Z,3.20
2023-01-22T07:01:34.557Z,3.08
2023-01-22T07:04:01.269Z,2.67
2023-01-22T07:06:27.948Z,3.13
2023-01-22T07:08:56.524Z,3.20
2023-01-22T07:11:23.545Z,3.53
2023-01-22T07:13:50.271Z,3.58
2023-01-22T07:16:17.134Z,3.40
2023-01-22T07:18:44.216Z,3.78
2023-01-22T07:21:12.010Z,3.70
2023-01-22T07:23:39.036Z,3.83
2023-01-22T07:26:05.687Z,4.00
2023-01-22T07:28:33.220Z,4.38
2023-01-22T07:31:00.053Z,3.85
2023-01-22T07:33:29.902Z,3.65
2023-01-22T07:35:57.646Z,3.95
2023-01-22T07:38:27.262Z,3.50
2023-01-22T07:40:53.993Z,4.45
2023-01-22T07:43:20.768Z,3.75
2023-01-22T07:45:47.849Z,5.13
2023-01-22T07:48:14.625Z,4.95
2023-01-22T07:53:08.743Z,5.03
2023-01-22T07:55:35.582Z,5.35
2023-01-22T07:58:04.867Z,4.85
2023-01-22T08:00:34.876Z,4.40
2023-01-22T08:03:04.587Z,4.20
2023-01-22T08:05:31.573Z,4.20
2023-01-22T08:07:58.821Z,5.07
2023-01-22T08:10:25.627Z,4.68
2023-01-22T08:12:52.429Z,4.20
2023-01-22T08:15:19.627Z,4.25
2023-01-22T08:17:50.189Z,4.50
2023-01-22T08:20:18.401Z,3.90
2023-01-22T08:22:45.602Z,4.30
2023-01-22T08:25:12.328Z,3.88
2023-01-22T08:27:39.166Z,3.72
2023-01-22T08:30:06.635Z,4.22
2023-01-22T08:32:45.541Z,4.22
2023-01-22T08:35:13.586Z,4.78
2023-01-22T08:37:40.865Z,4.00
2023-01-22T08:40:11.746Z,3.95
2023-01-22T08:42:38.518Z,3.75
2023-01-22T08:45:06.355Z,3.70
2023-01-22T08:47:36.565Z,3.83
2023-01-22T08:50:04.204Z,3.80
2023-01-22T08:52:30.856Z,3.70
2023-01-22T08:54:57.694Z,4.20
2023-01-22T08:57:29.112Z,4.55
2023-01-22T09:00:00.995Z,4.32
2023-01-22T09:02:28.340Z,3.80
2023-01-22T09:04:55.027Z,4.00
2023-01-22T09:07:21.743Z,4.22
2023-01-22T09:09:48.431Z,4.10
2023-01-22T09:12:15.679Z,4.43
2023-01-22T09:14:43.696Z,3.60
2023-01-22T09:17:18.693Z,3.50
2023-01-22T09:19:46.114Z,3.38
2023-01-22T09:22:13.106Z,3.55
2023-01-22T09:24:40.050Z,3.88
2023-01-22T09:27:08.847Z,3.50
2023-01-22T09:29:35.558Z,3.30
2023-01-22T09:32:02.436Z,3.10
2023-01-22T09:34:29.235Z,3.42
2023-01-22T09:36:55.940Z,2.97
2023-01-22T09:39:22.769Z,3.20
2023-01-22T09:41:53.064Z,3.03
2023-01-22T09:44:30.333Z,3.05
2023-01-22T09:47:01.704Z,2.90
2023-01-22T09:49:43.277Z,3.05
2023-01-22T09:52:12.011Z,3.60
2023-01-22T09:54:39.365Z,2.88
2023-01-22T09:57:19.846Z,3.42
2023-01-22T09:59:58.506Z,2.60
2023-01-22T10:02:35.536Z,2.80
2023-01-22T10:05:35.327Z,2.75
2023-01-22T10:08:13.636Z,3.10
2023-01-22T10:10:40.362Z,2.53
2023-01-22T10:13:23.045Z,2.83
2023-01-22T10:15:53.173Z,2.78
2023-01-22T10:18:43.339Z,2.80
2023-01-22T10:21:17.934Z,2.60
2023-01-22T10:23:45.657Z,2.75
2023-01-22T10:26:30.721Z,2.55
2023-01-22T10:29:03.980Z,2.47
2023-01-22T10:31:33.790Z,2.15
2023-01-22T10:34:03.214Z,2.30
2023-01-22T10:36:34.448Z,2.22
2023-01-22T10:39:07.305Z,2.47
2023-01-22T10:41:34.019Z,2.10
2023-01-22T10:44:16.591Z,2.40
2023-01-22T10:46:49.352Z,2.15
2023-01-22T10:49:20.916Z,2.47
2023-01-22T10:52:18.011Z,2.40
2023-01-22T10:55:00.758Z,2.42
2023-01-22T10:57:35.877Z,2.70
2023-01-22T11:00:16.288Z,2.42
2023-01-22T11:02:46.849Z,2.38
2023-01-22T11:05:23.584Z,2.88
2023-01-22T11:08:15.369Z,2.30
2023-01-22T11:10:42.443Z,2.35
2023-01-22T11:13:34.030Z,2.60
2023-01-22T11:16:16.480Z,2.45
2023-01-22T11:18:53.791Z,2.55
2023-01-22T11:21:25.016Z,2.10
2023-01-22T11:24:03.815Z,2.08
2023-01-22T11:26:42.393Z,2.92
2023-01-22T11:29:24.080Z,2.35
2023-01-22T11:32:22.853Z,2.28
2023-01-22T11:35:03.158Z,2.20
2023-01-22T11:37:43.602Z,2.30
2023-01-22T11:40:32.099Z,2.05
2023-01-22T11:43:35.693Z,2.10
2023-01-22T11:46:27.101Z,2.10
2023-01-22T11:49:12.572Z,2.00
2023-01-22T11:51:44.666Z,2.05
2023-01-22T11:54:31.101Z,2.10
2023-01-22T11:57:24.693Z,2.03
2023-01-22T12:00:10.588Z,2.20
2023-01-22T12:02:43.496Z,2.58
2023-01-22T12:05:26.386Z,2.20
2023-01-22T12:08:43.451Z,2.70
2023-01-22T12:11:23.540Z,2.10
2023-01-22T12:14:08.563Z,3.13
2023-01-22T12:16:43.575Z,2.67
2023-01-22T12:19:29.297Z,3.00
2023-01-22T12:22:40.531Z,2.75
2023-01-22T12:25:26.209Z,2.65
2023-01-22T12:28:10.587Z,2.78
2023-01-22T12:33:39.273Z,2.85
2023-01-22T12:36:13.497Z,3.13
2023-01-22T12:38:54.295Z,3.33
2023-01-22T12:41:52.685Z,3.40
2023-01-22T12:44:25.826Z,3.08
2023-01-22T12:47:16.089Z,2.60
2023-01-22T12:52:27.475Z,2.78
2023-01-22T12:54:55.719Z,3.05
2023-01-22T12:57:28.299Z,3.30
2023-01-22T12:59:57.737Z,3.30
2023-01-22T13:02:28.440Z,3.47
2023-01-22T13:04:56.493Z,3.65
2023-01-22T13:07:29.462Z,3.50
2023-01-22T13:10:21.961Z,3.78
2023-01-22T13:12:52.729Z,3.67
2023-01-22T13:15:24.612Z,2.88
2023-01-22T13:18:05.935Z,3.60
2023-01-22T13:20:48.093Z,3.25
2023-01-22T13:23:16.055Z,3.47
2023-01-22T13:25:43.127Z,3.72
2023-01-22T13:28:19.399Z,3.30
2023-01-22T13:30:52.738Z,3.80
2023-01-22T13:33:19.385Z,3.65
2023-01-22T13:35:48.025Z,3.33
2023-01-22T13:38:20.606Z,3.33
2023-01-22T13:40:52.654Z,3.95
2023-01-22T13:43:21.308Z,3.78
2023-01-22T13:45:49.511Z,3.92
2023-01-22T13:48:18.862Z,3.80
2023-01-22T13:50:51.654Z,3.83
2023-01-22T13:53:40.736Z,3.83
2023-01-22T13:56:21.348Z,3.67
2023-01-22T13:58:49.441Z,3.45
2023-01-22T14:01:35.274Z,3.95
2023-01-22T14:04:23.996Z,3.92
2023-01-22T14:09:36.350Z,3.97
2023-01-22T14:12:25.399Z,3.47
2023-01-22T14:14:52.815Z,3.83
2023-01-22T14:17:34.398Z,4.38
2023-01-22T14:20:02.605Z,3.80
2023-01-22T14:22:29.304Z,3.85
2023-01-22T14:24:56.714Z,3.75
2023-01-22T14:27:27.899Z,3.67
2023-01-22T14:29:55.224Z,4.05
2023-01-22T14:32:24.051Z,4.05
2023-01-22T14:37:18.555Z,3.88
2023-01-22T14:39:45.278Z,3.30
2023-01-22T14:42:11.929Z,3.60
2023-01-22T14:44:38.835Z,3.60
2023-01-22T14:47:34.431Z,3.50
2023-01-22T14:50:02.085Z,3.47
2023-01-22T14:52:28.821Z,3.45
2023-01-22T14:54:56.468Z,3.80
2023-01-22T14:57:25.222Z,3.80
2023-01-22T14:59:53.243Z,3.42
2023-01-22T15:02:22.923Z,4.15
2023-01-22T15:04:50.269Z,4.22
2023-01-22T15:07:16.918Z,4.00
2023-01-22T15:09:43.879Z,4.30
2023-01-22T15:12:11.962Z,4.13
2023-01-22T15:14:38.710Z,4.80
2023-01-22T15:17:05.640Z,4.88
2023-01-22T15:19:40.999Z,3.85
2023-01-22T15:22:08.339Z,3.97
2023-01-22T15:24:35.217Z,3.85
2023-01-22T15:27:02.566Z,3.85
2023-01-22T15:29:31.336Z,4.05
2023-01-22T15:31:58.528Z,3.40
2023-01-22T15:34:28.735Z,3.38
2023-01-22T15:36:55.399Z,3.85
2023-01-22T15:39:22.039Z,3.80
2023-01-22T15:41:48.683Z,4.25
2023-01-22T15:44:15.559Z,3.92
2023-01-22T15:46:46.381Z,3.63
2023-01-22T15:49:13.943Z,3.90
2023-01-22T15:51:49.039Z,3.50
2023-01-22T15:54:16.746Z,3.75
2023-01-22T15:56:43.782Z,3.47
2023-01-22T15:59:14.245Z,3.80
2023-01-22T16:01:41.011Z,4.15
2023-01-22T16:04:08.172Z,4.00
2023-01-22T16:06:35.417Z,4.13
2023-01-22T16:09:04.469Z,4.47
2023-01-22T16:11:32.947Z,4.95
2023-01-22T16:16:36.724Z,4.65
2023-01-22T16:19:06.612Z,6.00
2023-01-22T16:21:33.527Z,6.00
2023-01-22T16:24:02.043Z,5.95
2023-01-22T16:26:35.220Z,4.90
2023-01-22T16:29:04.917Z,5.03
2023-01-22T16:31:33.107Z,4.80
2023-01-22T16:34:06.444Z,4.90
2023-01-22T16:36:33.646Z,5.05
2023-01-22T16:39:01.352Z,5.35
2023-01-22T16:41:39.824Z,4.72
2023-01-22T16:44:12.571Z,5.00
2023-01-22T16:46:42.185Z,5.40
2023-01-22T16:49:16.704Z,5.07
2023-01-22T16:51:46.434Z,5.18
2023-01-22T16:54:37.056Z,5.90
2023-01-22T16:57:06.846Z,5.80
2023-01-22T16:59:35.959Z,6.10
2023-01-22T17:02:08.136Z,5.35
2023-01-22T17:04:35.265Z,5.32
2023-01-22T17:07:02.013Z,5.45
2023-01-22T17:09:36.419Z,5.72
2023-01-22T17:12:05.471Z,5.80
2023-01-22T17:14:36.311Z,5.25
2023-01-22T17:17:05.588Z,4.90
2023-01-22T17:19:33.413Z,4.72
2023-01-22T17:22:01.907Z,5.43
2023-01-22T17:24:29.980Z,5.57
2023-01-22T17:26:58.538Z,4.60
2023-01-22T17:29:26.152Z,5.53
2023-01-22T17:31:54.022Z,5.10
2023-01-22T17:34:22.072Z,5.40
2023-01-22T17:39:24.488Z,5.60
2023-01-22T17:44:17.812Z,5.63
2023-01-22T17:46:44.878Z,5.15
2023-01-22T17:49:11.685Z,5.43
2023-01-22T17:51:39.003Z,5.85
2023-01-22T17:54:06.392Z,5.05
2023-01-22T17:56:35.755Z,5.53
2023-01-22T17:59:05.120Z,4.47
2023-01-22T18:01:33.018Z,4.72
2023-01-22T18:04:08.741Z,5.05
2023-01-22T18:06:37.574Z,4.97
2023-01-22T18:09:06.084Z,4.95
2023-01-22T18:11:34.158Z,4.80
2023-01-22T18:14:04.021Z,5.40
2023-01-22T18:16:34.497Z,4.50
2023-01-22T18:19:03.612Z,5.53
2023-01-22T18:21:30.239Z,5.47
2023-01-22T18:23:59.573Z,4.88
2023-01-22T18:26:26.817Z,5.68
2023-01-22T18:28:55.821Z,5.43
2023-01-22T18:31:27.510Z,5.75
2023-01-22T18:33:58.151Z,5.43
2023-01-22T18:36:27.143Z,5.25
2023-01-22T18:38:54.060Z,5.03
2023-01-22T18:41:29.162Z,4.65
2023-01-22T18:43:59.424Z,5.35
2023-01-22T18:46:31.855Z,6.18
2023-01-22T18:49:04.709Z,6.00
2023-01-22T18:51:33.528Z,5.60
2023-01-22T18:54:08.156Z,6.00
2023-01-22T18:56:35.285Z,5.75
2023-01-22T18:59:01.990Z,6.45
2023-01-22T19:01:31.508Z,6.00
2023-01-22T19:04:01.716Z,6.28
2023-01-22T19:06:31.516Z,6.45
2023-01-22T19:09:01.928Z,7.65
2023-01-22T19:11:30.107Z,6.20
2023-01-22T19:14:01.413Z,6.90
2023-01-22T19:16:29.759Z,7.50
2023-01-22T19:19:03.363Z,7.47
2023-01-22T19:21:33.713Z,7.05
2023-01-22T19:24:01.931Z,7.93
2023-01-22T19:26:36.728Z,6.90
2023-01-22T19:29:14.363Z,7.68
2023-01-22T19:31:48.603Z,7.28
2023-01-22T19:34:23.419Z,7.88
2023-01-22T19:36:52.706Z,7.55
2023-01-22T19:39:20.317Z,8.00
2023-01-22T19:41:47.855Z,8.25
2023-01-22T19:44:15.246Z,8.60
2023-01-22T19:46:42.619Z,7.65
2023-01-22T19:49:12.939Z,8.25
2023-01-22T19:51:46.430Z,7.80
2023-01-22T19:54:14.779Z,7.85
2023-01-22T19:56:45.519Z,8.10
2023-01-22T19:59:15.964Z,7.95
2023-01-22T20:01:45.728Z,8.23
2023-01-22T20:04:21.564Z,8.32
2023-01-22T20:06:52.836Z,8.93
2023-01-22T20:09:22.067Z,8.70
2023-01-22T20:14:18.086Z,7.55
2023-01-22T20:16:45.650Z,9.00
2023-01-22T20:19:12.414Z,8.25
2023-01-22T20:21:39.225Z,7.55
2023-01-22T20:24:06.668Z,9.25
2023-01-22T20:26:34.152Z,8.80
2023-01-22T20:29:01.450Z,8.82
2023-01-22T20:31:28.337Z,8.00
2023-01-22T20:33:57.207Z,7.93
2023-01-22T20:36:29.892Z,7.18
2023-01-22T20:38:57.734Z,8.38
2023-01-22T20:41:27.520Z,7.43
2023-01-22T20:43:55.465Z,7.80
2023-01-22T20:46:24.639Z,6.57
2023-01-22T20:48:52.882Z,7.18
2023-01-22T20:51:22.799Z,7.07
2023-01-22T20:53:52.759Z,6.90
2023-01-22T20:56:31.708Z,8.35
2023-01-22T20:59:05.508Z,8.45
2023-01-22T21:01:33.464Z,7.32
2023-01-22T21:04:02.165Z,8.38
2023-01-22T21:06:32.156Z,9.10
2023-01-22T21:09:01.230Z,8.50
2023-01-22T21:11:31.048Z,8.37
2023-01-22T21:13:59.916Z,8.27
2023-01-22T21:16:32.104Z,9.23
2023-01-22T21:19:04.360Z,8.95
2023-01-22T21:21:32.556Z,8.40
2023-01-22T21:23:59.849Z,8.63
2023-01-22T21:26:31.947Z,9.13
2023-01-22T21:29:04.703Z,8.73
2023-01-22T21:31:34.589Z,8.75
2023-01-22T21:34:03.766Z,8.10
2023-01-22T21:36:30.337Z,8.05
2023-01-22T21:38:57.226Z,8.57
2023-01-22T21:41:26.249Z,7.70
2023-01-22T21:44:11.830Z,8.57
2023-01-22T21:46:41.635Z,8.40
2023-01-22T21:49:20.146Z,7.97
2023-01-22T21:54:20.900Z,8.20
2023-01-22T21:56:53.096Z,7.03
2023-01-22T21:59:20.229Z,6.53
2023-01-22T22:01:47.543Z,8.23
2023-01-22T22:04:15.168Z,7.20
2023-01-22T22:06:42.245Z,6.83
2023-01-22T22:09:14.763Z,7.18
2023-01-22T22:11:42.368Z,6.37
2023-01-22T22:14:22.135Z,6.45
2023-01-22T22:16:49.497Z,6.65
2023-01-22T22:19:17.608Z,6.60
2023-01-22T22:21:45.506Z,6.63
2023-01-22T22:24:12.921Z,6.73
2023-01-22T22:26:40.171Z,6.32
2023-01-22T22:29:08.265Z,6.90
2023-01-22T22:31:35.182Z,7.13
2023-01-22T22:34:02.051Z,7.20
2023-01-22T22:36:30.347Z,6.40
2023-01-22T22:38:57.708Z,8.17
2023-01-22T22:41:27.173Z,7.72
2023-01-22T22:43:55.472Z,7.72
2023-01-22T22:46:34.242Z,8.23
2023-01-22T22:49:01.857Z,7.10
2023-01-22T22:51:39.890Z,7.90
2023-01-22T22:54:11.706Z,6.93
2023-01-22T22:56:38.597Z,7.00
2023-01-22T22:59:05.386Z,7.65
2023-01-22T23:01:33.435Z,7.30
2023-01-22T23:04:01.082Z,7.13
2023-01-22T23:06:30.780Z,7.30
2023-01-22T23:08:58.664Z,7.32
2023-01-22T23:11:31.184Z,6.43
2023-01-22T23:14:01.712Z,7.13
2023-01-22T23:16:32.214Z,6.90
2023-01-22T23:19:01.452Z,7.18
2023-01-22T23:21:29.534Z,6.83
2023-01-22T23:23:56.930Z,7.40
2023-01-22T23:26:30.075Z,6.82
2023-01-22T23:28:58.886Z,6.95
2023-01-22T23:31:27.261Z,6.82
2023-01-22T23:33:55.882Z,7.45
2023-01-22T23:36:23.254Z,8.03
2023-01-22T23:38:50.019Z,6.90
2023-01-22T23:41:18.086Z,7.90
2023-01-22T23:43:45.486Z,8.20
2023-01-22T23:46:24.607Z,7.57
2023-01-22T23:48:55.754Z,8.77
2023-01-22T23:51:22.706Z,5.93
2023-01-22T23:53:52.885Z,7.88
2023-01-22T23:56:21.742Z,7.90
2023-01-22T23:58:48.948Z,7.60
